createdAt,value
2022-07-29T00:00:57.208Z,22.29
2022-07-29T00:03:23.756Z,22.18
2022-07-29T00:05:50.286Z,22.52
2022-07-29T00:08:16.743Z,22.40
2022-07-29T00:10:43.492Z,22.69
2022-07-29T00:13:09.982Z,22.77
2022-07-29T00:15:36.555Z,22.37
2022-07-29T00:18:03.120Z,22.48
2022-07-29T00:20:29.598Z,22.64
2022-07-29T00:22:56.143Z,22.82
2022-07-29T00:25:22.599Z,22.53
2022-07-29T00:27:49.178Z,22.43
2022-07-29T00:30:15.832Z,22.77
2022-07-29T00:32:42.564Z,22.81
2022-07-29T00:35:28.443Z,22.77
2022-07-29T00:37:54.965Z,22.94
2022-07-29T00:40:23.523Z,22.85
2022-07-29T00:42:52.624Z,22.72
2022-07-29T00:45:19.923Z,22.76
2022-07-29T00:47:47.434Z,22.77
2022-07-29T00:50:14.682Z,22.94
2022-07-29T00:52:42.996Z,23.02
2022-07-29T00:55:14.505Z,22.98
2022-07-29T00:57:42.186Z,22.89
2022-07-29T01:00:12.109Z,23.00
2022-07-29T01:02:38.664Z,23.08
2022-07-29T01:05:06.867Z,23.11
2022-07-29T01:07:35.971Z,23.07
2022-07-29T01:10:05.532Z,23.14
2022-07-29T01:12:34.437Z,23.03
2022-07-29T01:15:02.633Z,22.85
2022-07-29T01:17:34.681Z,22.87
2022-07-29T01:20:31.459Z,22.67
2022-07-29T01:23:20.203Z,22.34
2022-07-29T01:26:07.991Z,22.62
2022-07-29T01:28:46.987Z,22.85
2022-07-29T01:31:24.986Z,22.93
2022-07-29T01:34:03.906Z,23.01
2022-07-29T01:36:36.119Z,23.08
2022-07-29T01:39:13.663Z,23.07
2022-07-29T01:41:51.807Z,22.84
2022-07-29T01:44:23.667Z,22.43
2022-07-29T01:46:55.018Z,22.52
2022-07-29T01:49:28.229Z,22.29
2022-07-29T01:52:03.506Z,22.71
2022-07-29T01:54:43.917Z,22.52
2022-07-29T01:57:15.640Z,22.35
2022-07-29T01:59:44.361Z,22.59
2022-07-29T02:02:13.873Z,22.73
2022-07-29T02:04:42.372Z,21.85
2022-07-29T02:07:15.243Z,21.91
2022-07-29T02:09:42.844Z,21.76
2022-07-29T02:12:11.654Z,21.77
2022-07-29T02:14:44.707Z,22.04
2022-07-29T02:17:13.283Z,22.23
2022-07-29T02:19:42.871Z,21.75
2022-07-29T02:22:11.128Z,21.94
2022-07-29T02:24:41.099Z,21.84
2022-07-29T02:27:09.047Z,22.05
2022-07-29T02:29:36.789Z,22.08
2022-07-29T02:32:04.759Z,21.58
2022-07-29T02:34:31.972Z,21.71
2022-07-29T02:36:59.412Z,21.55
2022-07-29T02:39:28.475Z,21.49
2022-07-29T02:42:08.082Z,21.51
2022-07-29T02:44:35.747Z,21.52
2022-07-29T02:47:10.963Z,21.86
2022-07-29T02:50:05.331Z,21.77
2022-07-29T02:52:46.775Z,21.84
2022-07-29T02:55:23.494Z,21.85
2022-07-29T02:58:02.191Z,22.12
2022-07-29T03:00:32.374Z,21.78
2022-07-29T03:03:01.966Z,21.88
2022-07-29T03:05:28.498Z,21.88
2022-07-29T03:08:15.704Z,21.94
2022-07-29T03:10:46.524Z,21.98
2022-07-29T03:13:14.137Z,21.92
2022-07-29T03:15:43.104Z,21.99
2022-07-29T03:18:10.607Z,21.85
2022-07-29T03:20:38.727Z,22.18
2022-07-29T03:23:05.561Z,22.25
2022-07-29T03:25:32.367Z,22.24
2022-07-29T03:27:58.866Z,22.38
2022-07-29T03:30:25.339Z,22.41
2022-07-29T03:32:52.752Z,22.29
2022-07-29T03:35:20.936Z,22.33
2022-07-29T03:37:47.766Z,22.32
2022-07-29T03:40:26.879Z,22.33
2022-07-29T03:42:56.478Z,22.25
2022-07-29T03:45:24.550Z,22.29
2022-07-29T03:48:00.748Z,22.26
2022-07-29T03:50:29.557Z,22.41
2022-07-29T03:52:56.077Z,22.45
2022-07-29T03:55:22.986Z,22.33
2022-07-29T03:57:51.624Z,22.25
2022-07-29T04:00:18.761Z,22.30
2022-07-29T04:02:49.247Z,22.19
2022-07-29T04:05:16.549Z,22.18
2022-07-29T04:07:47.913Z,22.16
2022-07-29T04:10:16.592Z,22.15
2022-07-29T04:12:43.262Z,21.96
2022-07-29T04:15:10.460Z,21.87
2022-07-29T04:17:36.928Z,21.84
2022-07-29T04:20:04.741Z,21.82
2022-07-29T04:22:31.280Z,21.86
2022-07-29T04:25:03.229Z,21.80
2022-07-29T04:27:30.378Z,21.79
2022-07-29T04:29:57.632Z,21.79
2022-07-29T04:32:28.005Z,21.65
2022-07-29T04:34:54.551Z,21.67
2022-07-29T04:37:21.118Z,21.79
2022-07-29T04:39:47.603Z,21.77
2022-07-29T04:42:14.097Z,21.81
2022-07-29T04:44:42.835Z,21.84
2022-07-29T04:47:09.888Z,21.89
2022-07-29T04:49:39.111Z,21.95
2022-07-29T04:52:06.370Z,22.08
2022-07-29T04:54:32.823Z,22.18
2022-07-29T04:56:59.291Z,22.01
2022-07-29T04:59:27.637Z,22.18
2022-07-29T05:01:54.293Z,21.98
2022-07-29T05:04:21.154Z,22.01
2022-07-29T05:06:47.874Z,22.23
2022-07-29T05:09:14.368Z,22.23
2022-07-29T05:11:40.949Z,22.21
2022-07-29T05:14:07.417Z,22.33
2022-07-29T05:16:34.471Z,22.23
2022-07-29T05:19:01.022Z,22.08
2022-07-29T05:21:27.494Z,22.09
2022-07-29T05:23:53.943Z,22.33
2022-07-29T05:26:20.449Z,22.57
2022-07-29T05:28:46.923Z,22.33
2022-07-29T05:31:15.584Z,22.70
2022-07-29T05:33:42.534Z,22.92
2022-07-29T05:36:09.375Z,22.77
2022-07-29T05:38:36.781Z,23.02
2022-07-29T05:41:03.934Z,23.08
2022-07-29T05:43:30.937Z,23.14
2022-07-29T05:45:57.827Z,22.93
2022-07-29T05:48:24.759Z,23.61
2022-07-29T05:50:51.223Z,23.24
2022-07-29T05:53:20.158Z,23.94
2022-07-29T05:55:48.317Z,23.63
2022-07-29T05:58:14.802Z,23.73
2022-07-29T06:00:41.439Z,24.04
2022-07-29T06:03:08.023Z,23.82
2022-07-29T06:05:34.528Z,23.60
2022-07-29T06:08:00.995Z,23.67
2022-07-29T06:10:27.897Z,23.48
2022-07-29T06:12:54.522Z,23.74
2022-07-29T06:15:21.199Z,23.36
2022-07-29T06:18:00.035Z,23.90
2022-07-29T06:20:27.769Z,23.78
2022-07-29T06:22:54.219Z,23.59
2022-07-29T06:25:20.794Z,23.72
2022-07-29T06:27:47.243Z,24.36
2022-07-29T06:30:13.951Z,24.28
2022-07-29T06:32:43.171Z,24.38
2022-07-29T06:35:37.890Z,24.46
2022-07-29T06:37:59.619Z,24.42
2022-07-29T06:40:45.235Z,24.57
2022-07-29T06:43:11.868Z,24.84
2022-07-29T06:45:42.212Z,25.15
2022-07-29T06:48:08.976Z,24.33
2022-07-29T06:50:35.638Z,24.90
2022-07-29T06:53:02.319Z,24.87
2022-07-29T06:55:28.788Z,25.38
2022-07-29T06:57:55.247Z,25.50
2022-07-29T07:00:21.774Z,26.16
2022-07-29T07:02:48.897Z,26.03
2022-07-29T07:05:15.502Z,26.18
2022-07-29T07:07:41.985Z,26.74
2022-07-29T07:10:09.259Z,26.56
2022-07-29T07:12:35.797Z,26.12
2022-07-29T07:15:02.305Z,26.63
2022-07-29T07:17:28.806Z,26.48
2022-07-29T07:19:55.719Z,26.83
2022-07-29T07:22:22.302Z,27.09
2022-07-29T07:24:48.775Z,27.04
2022-07-29T07:27:15.322Z,27.19
2022-07-29T07:29:43.708Z,27.00
2022-07-29T07:32:11.055Z,26.31
2022-07-29T07:34:38.997Z,26.65
2022-07-29T07:37:06.265Z,27.17
2022-07-29T07:39:32.710Z,27.50
2022-07-29T07:41:59.283Z,27.43
2022-07-29T07:44:25.736Z,27.50
2022-07-29T07:46:53.434Z,27.44
2022-07-29T07:49:21.290Z,27.37
2022-07-29T07:51:50.731Z,27.58
2022-07-29T07:54:20.486Z,27.17
2022-07-29T07:56:50.777Z,27.32
2022-07-29T07:59:19.913Z,27.21
2022-07-29T08:01:55.109Z,27.27
2022-07-29T08:04:27.327Z,27.71
2022-07-29T08:06:55.884Z,28.20
2022-07-29T08:09:30.886Z,28.36
2022-07-29T08:12:00.023Z,28.87
2022-07-29T08:14:26.687Z,29.84
2022-07-29T08:16:53.192Z,29.83
2022-07-29T08:19:19.711Z,28.19
2022-07-29T08:21:46.391Z,28.98
2022-07-29T08:24:31.615Z,28.80
2022-07-29T08:26:58.185Z,29.78
2022-07-29T08:29:24.745Z,29.52
2022-07-29T08:31:51.534Z,29.49
2022-07-29T08:34:18.221Z,29.52
2022-07-29T08:36:44.745Z,29.39
2022-07-29T08:39:16.743Z,29.23
2022-07-29T08:41:53.057Z,29.70
2022-07-29T08:44:30.400Z,29.42
2022-07-29T08:46:58.089Z,28.40
2022-07-29T08:49:24.824Z,29.01
2022-07-29T08:51:52.554Z,29.34
2022-07-29T08:54:20.843Z,28.61
2022-07-29T08:56:50.921Z,28.61
2022-07-29T08:59:22.032Z,28.80
2022-07-29T09:01:52.145Z,28.92
2022-07-29T09:04:20.391Z,29.19
2022-07-29T09:06:50.404Z,28.10
2022-07-29T09:09:17.650Z,29.58
2022-07-29T09:11:44.506Z,29.70
2022-07-29T09:14:13.502Z,30.19
2022-07-29T09:16:57.547Z,29.46
2022-07-29T09:19:29.613Z,29.86
2022-07-29T09:22:04.394Z,30.66
2022-07-29T09:24:38.667Z,29.45
2022-07-29T09:27:11.219Z,29.59
2022-07-29T09:29:38.935Z,28.77
2022-07-29T09:32:10.568Z,29.25
2022-07-29T09:34:38.010Z,29.49
2022-07-29T09:37:05.119Z,29.38
2022-07-29T09:39:37.490Z,29.36
2022-07-29T09:42:06.109Z,28.95
2022-07-29T09:44:52.854Z,29.40
2022-07-29T09:47:22.748Z,30.28
2022-07-29T09:49:53.782Z,30.56
2022-07-29T09:52:20.840Z,30.14
2022-07-29T09:54:47.419Z,30.72
2022-07-29T09:57:31.251Z,30.85
2022-07-29T10:00:00.583Z,30.79
2022-07-29T10:02:32.219Z,31.02
2022-07-29T10:05:00.392Z,31.64
2022-07-29T10:07:27.541Z,30.89
2022-07-29T10:09:58.694Z,31.73
2022-07-29T10:12:25.442Z,31.67
2022-07-29T10:14:52.402Z,30.53
2022-07-29T10:17:20.207Z,30.58
2022-07-29T10:19:48.062Z,31.47
2022-07-29T10:22:15.073Z,30.46
2022-07-29T10:24:41.733Z,30.74
2022-07-29T10:27:09.528Z,31.27
2022-07-29T10:29:37.117Z,30.49
2022-07-29T10:32:06.303Z,30.41
2022-07-29T10:35:06.733Z,30.28
2022-07-29T10:37:58.282Z,29.86
2022-07-29T10:41:00.846Z,31.05
2022-07-29T10:43:31.859Z,31.58
2022-07-29T10:46:00.834Z,31.01
2022-07-29T10:48:27.423Z,31.74
2022-07-29T10:51:05.060Z,32.67
2022-07-29T10:53:51.631Z,31.09
2022-07-29T10:56:30.359Z,31.28
2022-07-29T10:59:22.926Z,30.36
2022-07-29T11:01:56.672Z,31.93
2022-07-29T11:04:45.251Z,30.66
2022-07-29T11:07:13.789Z,30.80
2022-07-29T11:09:41.815Z,32.77
2022-07-29T11:12:39.409Z,31.32
2022-07-29T11:15:13.732Z,31.56
2022-07-29T11:17:59.207Z,29.97
2022-07-29T11:20:37.910Z,30.36
2022-07-29T11:23:33.321Z,30.93
2022-07-29T11:26:23.238Z,31.95
2022-07-29T11:28:55.641Z,30.39
2022-07-29T11:31:34.622Z,30.87
2022-07-29T11:34:31.360Z,31.27
2022-07-29T11:37:07.470Z,31.22
2022-07-29T11:42:28.174Z,31.84
2022-07-29T11:45:43.678Z,31.66
2022-07-29T11:48:27.653Z,30.02
2022-07-29T11:50:48.291Z,30.82
2022-07-29T11:53:16.083Z,31.29
2022-07-29T11:58:30.161Z,30.24
2022-07-29T12:00:57.993Z,31.99
2022-07-29T12:03:34.813Z,31.66
2022-07-29T12:06:02.765Z,31.25
2022-07-29T12:07:01.815Z,30.60
2022-07-29T12:08:30.456Z,31.81
2022-07-29T12:10:57.095Z,32.49
2022-07-29T12:13:36.975Z,31.59
2022-07-29T12:16:05.036Z,31.78
2022-07-29T12:18:32.031Z,30.45
2022-07-29T12:21:03.075Z,30.65
2022-07-29T12:23:34.488Z,30.43
2022-07-29T12:26:02.027Z,30.11
2022-07-29T12:28:28.556Z,29.32
2022-07-29T12:30:55.051Z,29.98
2022-07-29T12:33:27.360Z,29.86
2022-07-29T12:36:06.767Z,30.50
2022-07-29T12:38:35.874Z,29.70
2022-07-29T12:41:02.715Z,30.95
2022-07-29T12:43:31.492Z,31.18
2022-07-29T12:45:58.436Z,30.81
2022-07-29T12:48:35.841Z,31.15
2022-07-29T12:51:04.078Z,30.86
2022-07-29T12:53:31.066Z,30.67
2022-07-29T12:56:00.653Z,30.16
2022-07-29T12:58:28.172Z,29.56
2022-07-29T13:01:06.992Z,29.97
2022-07-29T13:03:56.874Z,29.53
2022-07-29T13:06:34.695Z,29.81
2022-07-29T13:09:25.182Z,29.65
2022-07-29T13:11:53.453Z,30.76
2022-07-29T13:14:40.414Z,30.83
2022-07-29T13:17:16.770Z,31.55
2022-07-29T13:19:51.386Z,31.18
2022-07-29T13:22:25.713Z,31.09
2022-07-29T13:24:55.504Z,31.14
2022-07-29T13:27:30.191Z,30.81
2022-07-29T13:29:59.228Z,30.42
2022-07-29T13:32:28.527Z,29.59
2022-07-29T13:35:00.395Z,29.18
2022-07-29T13:37:30.687Z,29.43
2022-07-29T13:39:58.115Z,30.00
2022-07-29T13:42:24.887Z,30.13
2022-07-29T13:44:52.656Z,29.79
2022-07-29T13:47:31.920Z,29.87
2022-07-29T13:50:00.391Z,29.55
2022-07-29T13:52:26.918Z,30.09
2022-07-29T13:54:53.406Z,30.07
2022-07-29T13:57:20.318Z,29.56
2022-07-29T13:59:50.528Z,29.72
2022-07-29T14:02:19.998Z,29.32
2022-07-29T14:04:46.659Z,29.92
2022-07-29T14:07:16.215Z,30.27
2022-07-29T14:09:43.513Z,29.74
2022-07-29T14:12:10.267Z,29.12
2022-07-29T14:14:37.705Z,29.63
2022-07-29T14:17:07.512Z,29.35
2022-07-29T14:19:36.751Z,29.81
2022-07-29T14:22:05.431Z,29.96
2022-07-29T14:24:34.676Z,30.16
2022-07-29T14:27:04.290Z,30.27
2022-07-29T14:29:37.497Z,30.21
2022-07-29T14:32:06.942Z,28.91
2022-07-29T14:34:34.405Z,29.09
2022-07-29T14:37:00.871Z,28.92
2022-07-29T14:39:31.998Z,29.46
2022-07-29T14:41:59.193Z,29.38
2022-07-29T14:44:31.991Z,29.35
2022-07-29T14:47:00.743Z,29.06
2022-07-29T14:49:28.201Z,28.42
2022-07-29T14:51:55.078Z,28.59
2022-07-29T14:54:21.863Z,28.43
2022-07-29T14:56:50.316Z,28.15
2022-07-29T14:59:17.487Z,27.99
2022-07-29T15:01:44.241Z,28.01
2022-07-29T15:04:10.714Z,27.63
2022-07-29T15:06:37.535Z,27.63
2022-07-29T15:09:04.073Z,27.72
2022-07-29T15:11:30.579Z,27.98
2022-07-29T15:14:03.595Z,28.01
2022-07-29T15:16:30.115Z,28.37
2022-07-29T15:18:58.686Z,28.02
2022-07-29T15:21:28.002Z,27.88
2022-07-29T15:23:54.575Z,28.09
2022-07-29T15:26:21.171Z,28.60
2022-07-29T15:28:47.869Z,28.37
2022-07-29T15:31:14.424Z,27.68
2022-07-29T15:33:41.455Z,27.92
2022-07-29T15:36:08.209Z,27.59
2022-07-29T15:38:34.790Z,28.07
2022-07-29T15:41:01.420Z,28.12
2022-07-29T15:43:28.178Z,28.27
2022-07-29T15:46:13.600Z,28.17
2022-07-29T15:48:40.384Z,27.75
2022-07-29T15:51:06.930Z,28.15
2022-07-29T15:53:35.278Z,27.43
2022-07-29T15:56:02.202Z,27.46
2022-07-29T15:58:28.908Z,27.58
2022-07-29T16:00:55.631Z,27.25
2022-07-29T16:03:22.929Z,26.78
2022-07-29T16:05:49.603Z,27.01
2022-07-29T16:08:16.220Z,27.55
2022-07-29T16:10:42.719Z,27.53
2022-07-29T16:13:09.307Z,26.89
2022-07-29T16:15:35.846Z,26.92
2022-07-29T16:18:02.384Z,26.41
2022-07-29T16:20:30.211Z,26.58
2022-07-29T16:22:56.851Z,26.05
2022-07-29T16:25:38.478Z,26.29
2022-07-29T16:28:10.574Z,26.70
2022-07-29T16:30:37.136Z,26.03
2022-07-29T16:33:08.090Z,26.08
2022-07-29T16:35:39.496Z,25.90
2022-07-29T16:38:06.783Z,25.58
2022-07-29T16:40:33.333Z,25.50
2022-07-29T16:42:59.930Z,25.87
2022-07-29T16:45:26.651Z,25.76
2022-07-29T16:48:01.005Z,25.48
2022-07-29T16:50:28.904Z,25.28
2022-07-29T16:52:56.341Z,25.03
2022-07-29T16:55:22.820Z,25.09
2022-07-29T16:57:49.654Z,25.12
2022-07-29T17:00:17.580Z,25.21
2022-07-29T17:02:44.150Z,24.67
2022-07-29T17:05:12.339Z,25.01
2022-07-29T17:07:40.253Z,24.41
2022-07-29T17:10:10.991Z,24.40
2022-07-29T17:12:38.859Z,24.28
2022-07-29T17:15:07.397Z,23.87
2022-07-29T17:17:38.973Z,23.81
2022-07-29T17:20:20.959Z,24.13
2022-07-29T17:22:47.530Z,23.73
2022-07-29T17:25:20.815Z,23.22
2022-07-29T17:27:49.518Z,22.88
2022-07-29T17:30:16.042Z,23.18
2022-07-29T17:32:42.508Z,22.63
2022-07-29T17:35:29.767Z,22.53
2022-07-29T17:37:56.302Z,22.71
2022-07-29T17:40:22.986Z,22.79
2022-07-29T17:42:49.682Z,22.97
2022-07-29T17:45:16.368Z,22.83
2022-07-29T17:47:42.831Z,22.65
2022-07-29T17:50:09.708Z,22.51
2022-07-29T17:52:36.226Z,22.37
2022-07-29T17:55:02.747Z,22.28
2022-07-29T17:57:29.258Z,22.27
2022-07-29T17:59:55.726Z,22.33
2022-07-29T18:02:22.293Z,22.22
2022-07-29T18:04:51.554Z,22.05
2022-07-29T18:07:18.558Z,22.16
2022-07-29T18:09:45.261Z,22.08
2022-07-29T18:12:11.770Z,21.90
2022-07-29T18:14:38.527Z,21.98
2022-07-29T18:17:05.001Z,22.15
2022-07-29T18:19:31.667Z,21.98
2022-07-29T18:22:03.226Z,22.07
2022-07-29T18:24:32.321Z,22.05
2022-07-29T18:26:59.122Z,22.14
2022-07-29T18:29:28.795Z,22.30
2022-07-29T18:31:55.406Z,22.59
2022-07-29T18:34:22.012Z,22.50
2022-07-29T18:36:48.543Z,22.53
2022-07-29T18:39:20.713Z,22.53
2022-07-29T18:41:50.628Z,22.41
2022-07-29T18:44:22.011Z,22.32
2022-07-29T18:46:49.588Z,22.67
2022-07-29T18:49:16.175Z,22.39
2022-07-29T18:51:42.815Z,22.54
2022-07-29T18:54:10.724Z,22.67
2022-07-29T18:56:37.602Z,22.42
2022-07-29T18:59:04.753Z,22.68
2022-07-29T19:01:31.850Z,22.29
2022-07-29T19:03:59.176Z,22.84
2022-07-29T19:06:26.160Z,22.50
2022-07-29T19:08:52.823Z,22.30
2022-07-29T19:11:19.322Z,22.51
2022-07-29T19:13:45.864Z,22.55
2022-07-29T19:16:14.030Z,22.19
2022-07-29T19:18:41.342Z,22.17
2022-07-29T19:21:07.841Z,22.23
2022-07-29T19:24:01.411Z,22.07
2022-07-29T19:26:20.972Z,21.86
2022-07-29T19:28:48.710Z,21.81
2022-07-29T19:31:15.802Z,21.88
2022-07-29T19:33:42.674Z,22.10
2022-07-29T19:36:09.194Z,21.92
2022-07-29T19:38:35.743Z,21.85
2022-07-29T19:41:02.218Z,21.93
2022-07-29T19:43:51.499Z,22.24
2022-07-29T19:46:15.773Z,22.03
2022-07-29T19:48:42.403Z,22.10
2022-07-29T19:51:08.923Z,22.04
2022-07-29T19:53:35.455Z,21.60
2022-07-29T19:56:01.965Z,21.52
2022-07-29T19:58:30.287Z,21.60
2022-07-29T20:00:57.312Z,21.79
2022-07-29T20:03:23.766Z,21.69
2022-07-29T20:05:51.364Z,21.84
2022-07-29T20:08:18.104Z,21.56
2022-07-29T20:10:44.655Z,21.76
2022-07-29T20:13:11.203Z,21.59
2022-07-29T20:15:37.724Z,21.53
2022-07-29T20:18:04.549Z,21.52
2022-07-29T20:20:31.008Z,21.39
2022-07-29T20:22:58.585Z,21.52
2022-07-29T20:25:25.409Z,21.59
2022-07-29T20:27:55.110Z,21.65
2022-07-29T20:30:22.456Z,21.83
2022-07-29T20:32:49.840Z,21.51
2022-07-29T20:35:16.498Z,21.72
2022-07-29T20:37:52.312Z,21.75
2022-07-29T20:40:24.294Z,21.52
2022-07-29T20:42:50.803Z,21.70
2022-07-29T20:45:17.515Z,21.82
2022-07-29T20:47:43.995Z,21.56
2022-07-29T20:50:10.460Z,21.69
2022-07-29T20:52:36.991Z,21.22
2022-07-29T20:55:03.690Z,21.34
2022-07-29T20:57:39.157Z,21.46
2022-07-29T21:00:07.464Z,21.68
2022-07-29T21:02:34.292Z,21.63
2022-07-29T21:05:01.172Z,21.59
2022-07-29T21:07:27.688Z,21.58
2022-07-29T21:09:54.143Z,21.38
2022-07-29T21:12:20.605Z,21.32
2022-07-29T21:14:48.071Z,21.32
2022-07-29T21:17:16.336Z,21.14
2022-07-29T21:19:43.196Z,20.83
2022-07-29T21:22:09.982Z,21.07
2022-07-29T21:24:36.507Z,20.74
2022-07-29T21:27:22.005Z,20.52
2022-07-29T21:29:49.354Z,20.28
2022-07-29T21:32:29.764Z,20.15
2022-07-29T21:34:56.770Z,20.16
2022-07-29T21:37:23.333Z,20.24
2022-07-29T21:39:49.920Z,20.22
2022-07-29T21:42:16.495Z,20.18
2022-07-29T21:44:43.022Z,19.98
2022-07-29T21:47:09.860Z,20.12
2022-07-29T21:49:36.359Z,20.16
2022-07-29T21:52:04.715Z,20.32
2022-07-29T21:54:31.496Z,20.28
2022-07-29T21:56:58.373Z,20.45
2022-07-29T21:59:25.275Z,20.23
2022-07-29T22:01:51.824Z,20.40
2022-07-29T22:04:18.529Z,20.27
2022-07-29T22:06:45.084Z,20.52
2022-07-29T22:09:11.692Z,20.60
2022-07-29T22:11:38.274Z,20.35
2022-07-29T22:14:05.742Z,20.50
2022-07-29T22:16:32.307Z,20.58
2022-07-29T22:18:58.834Z,20.56
2022-07-29T22:21:25.315Z,20.43
2022-07-29T22:23:51.824Z,20.30
2022-07-29T22:26:18.354Z,20.55
2022-07-29T22:28:44.829Z,20.52
2022-07-29T22:31:11.390Z,20.67
2022-07-29T22:33:37.987Z,20.64
2022-07-29T22:36:04.755Z,20.74
2022-07-29T22:38:31.214Z,20.90
2022-07-29T22:41:01.326Z,20.44
2022-07-29T22:43:28.232Z,20.72
2022-07-29T22:45:54.959Z,20.64
2022-07-29T22:48:21.503Z,20.36
2022-07-29T22:50:47.994Z,20.26
2022-07-29T22:53:14.468Z,20.26
2022-07-29T22:55:41.053Z,20.41
2022-07-29T22:58:07.539Z,20.52
2022-07-29T23:00:34.226Z,20.41
2022-07-29T23:03:00.753Z,20.64
2022-07-29T23:05:27.332Z,20.60
2022-07-29T23:07:53.821Z,20.44
2022-07-29T23:10:22.185Z,20.30
2022-07-29T23:12:48.624Z,20.29
2022-07-29T23:15:15.322Z,20.33
2022-07-29T23:17:41.789Z,20.14
2022-07-29T23:20:09.908Z,20.31
2022-07-29T23:22:36.657Z,20.34
2022-07-29T23:25:04.976Z,20.17
2022-07-29T23:27:31.506Z,19.98
2022-07-29T23:29:57.982Z,20.08
2022-07-29T23:32:24.410Z,20.11
2022-07-29T23:34:50.879Z,19.96
2022-07-29T23:37:17.326Z,20.09
2022-07-29T23:39:43.807Z,19.80
2022-07-29T23:42:10.278Z,19.82
2022-07-29T23:44:36.760Z,19.89
2022-07-29T23:47:03.676Z,20.03
2022-07-29T23:49:30.397Z,20.02
2022-07-29T23:51:57.026Z,20.30
2022-07-29T23:54:23.508Z,20.15
2022-07-29T23:56:49.977Z,20.14
2022-07-29T23:59:16.482Z,20.14
